航空気象通報

ウインドサーファーのための航空気象通報による風予報です。

2/28-3/2の航空気象通報

2015年02月28日 23時40分00秒 | TAF

羽田空港
TAF RJTT 281106Z 2812/0118 14010KT 9999 FEW025 BKN050
TEMPO 0106/0109 4000 -RA BR FEW005 BKN008
TEMPO 0109/0112 3000 RA BR FEW003 BKN005
BECMG 0112/0115 32025G35KT
TEMPO 0112/0115 4000 RA BR FEW005 BKN008
日本時間28日21時-1日21時:140度から10ノットの風
21-24時:風が変化
2日00-03時:320度から25ノット、突風35ノット

但し、1日15-21時の間:ときどき
但し、1日21-24の間:ときどき

静岡空港
TAF RJNS 281105Z 2812/0118 06004KT 9999 FEW030 BKN050
TEMPO 0103/0109 2000 SHRA BR FEW004 BKN006
TEMPO 0109/0112 4000 SHRA BR FEW005 BKN008
BECMG 0112/0115 27020KT
TEMPO 0112/0118 27025G35KT
日本時間28日21時-1日21時:060度から4ノットの風
21-24時:風が変化
2日00-03時:270度から20ノットの風
但し、27日22-24時の間:ときどき280度から24ノット、突風35ノット

但し、1日12-21時の間:ときどき

福岡空港
TAF RJFF 281114Z 2812/0118 02005KT 7000 -SHRA FEW010 SCT015 BKN020
TEMPO 2815/2818 4000 -RA BR
TEMPO 2818/2824 3000 SHRA BR FEW005 BKN009 BKN015
TEMPO 0100/0103 4000 -SHRA BR
日本時間28日21時-2日03時:020度から5ノットの風
21-23時:風が変化
23時-1日03時:150度から3ノットの風

那覇空港
TAF ROAH 281112Z 2812/0118 18011KT 9999 FEW010 BKN020
BECMG 2816/2818 30018KT
TEMPO 2817/2820 3000 SHRA SCT006 BKN015 FEW025CB
BECMG 0115/0118 36012KT
日本時間28日21時-1日01時:180度から11ノットの風
01-03時:風が変化
03-24時:300度から18ノットの風
2日00-03時:風が変化
03時:360度から12ノットの風

但し、1日02-05時の間:ときどき

石垣空港
TAF ROIG 281115Z 2812/0118 26006KT 9999 FEW010 BKN025
BECMG 2815/2817 36013KT
TEMPO 2815/2818 4000 SHRA FEW008 BKN015 FEW025CB
日本時間28日21-24時:260度から6ノットの風
1日00-02時:風が変化
02時-2日03時:360度から13ノットの風

但し、1日00-03時の間:ときどき

マウイのカフルイ空港
PHOG 281131Z 2812/0112 05004KT P6SM VCSH SCT020 BKN035
FM282000 02010G18KT P6SM VCSH SCT025 BKN045
FM010800 05007KT P6SM VCSH SCT025 BKN045 AMD LTD TO WX VIS AND WIND TIL 281600
ハワイ時間28日02-10時:050度から4ノットの風
10-22時:020度から10ノット、突風18ノット
22時-1日02時:050度から7ノットの風

サイパン空港
TAF PGSN 281120Z 2812/0112 05011KT P6SM VCSH FEW020 SCT040
FM282300 06013G22KT P6SM VCSH SCT020 SCT050
FM010900 06011KT P6SM VCSH FEW020 SCT040
マリアナ時間28日22時-1日09時:050度から11ノットの風
09-19時:060度から13ノット、突風22ノット
19-22時:060度から11ノットの風

コメント
この記事をはてなブックマークに追加

2/27-3/1の航空気象通報

2015年02月28日 00時02分33秒 | TAF

羽田空港
TAF RJTT 271108Z 2712/2818 34028KT 9999 FEW030
TEMPO 2712/2716 34030G40KT
BECMG 2716/2718 34018KT
BECMG 2803/2806 16008KT
日本時間27日21時-28日01時:340度から28ノットの風
但し、27日21時-28日01時の間:ときどき340度から30ノット、突風40ノット
28日01-03時:風が変化
03-12時:340度から18ノットの風
12-15時:風が変化
15時-1日03時:160度から8ノットの風

静岡空港
TAF RJNS 271105Z 2712/2818 28022KT 9999 FEW030
TEMPO 2712/2713 28034G45KT
TEMPO 2713/2715 28024G35KT
BECMG 2715/2717 28008KT
BECMG 2800/2803 16006KT
BECMG 2806/2809 32004KT
日本時間27日21-24時:280度から22ノットの風
但し、27日21-22時の間:ときどき280度から34ノット、突風45ノット
但し、27日22-24時の間:ときどき280度から24ノット、突風35ノット
28日00-02時:風が変化
02-09時:280度から8ノットの風
09-12時:風が変化
12-15時:160度から6ノットの風
15-18時:風が変化
18時-1日03時:320度から4ノットの風

福岡空港
TAF RJFF 271119Z 2712/2818 03006KT 9999 FEW020 BKN030
BECMG 2712/2714 15003KT
日本時間27日21時:030度から6ノットの風
21-23時:風が変化
23時-1日03時:150度から3ノットの風

那覇空港
TAF ROAH 271107Z 2712/2818 07010KT 9999 FEW020 BKN030
BECMG 2722/2724 13011KT
日本時間27日21時-28日07時:070度から10ノットの風
07-09時:風が変化
09時-1日03時:130度から11ノットの風

石垣空港
TAF ROIG 271117Z 2712/2818 11006KT 9999 FEW006 BKN015
BECMG 2716/2718 15009KT
日本時間27日21時-28日01時:110度から6ノットの風
01-03時:風が変化
03時-1日03時:150度から9ノットの風

マウイのカフルイ空港
PHOG 271125Z 2712/2812 VRB03KT P6SM FEW025
FM272000 01012KT P6SM SCT035 SCT100
FM280500 03006KT P6SM VCSH SCT020 BKN035 AMD LTD TO WX VIS AND WIND TIL 271600
ハワイ時間27日02-10時:風向不定3ノットの風
10-19時:010度から12ノットの風
19時-28日02時:030度から6ノットの風

サイパン空港
TAF PGSN 271120Z 2712/2812 06013G19KT P6SM VCSH FEW020 SCT050
マリアナ時間27日22時-28日22時:060度から13ノット、突風19ノット

コメント
この記事をはてなブックマークに追加

2/23-2/25の航空気象通報

2015年02月24日 00時07分04秒 | TAF

羽田空港
TAF RJTT 231109Z 2312/2418 07012KT 9999 FEW015 BKN040
BECMG 2312/2314 05008KT
BECMG 2400/2403 10006KT
BECMG 2409/2412 04010KT
日本時間23日21時:070度から12ノットの風
21-23時:風が変化
23時-24日09時:050度から8ノットの風
09-12時:風が変化
12-18時:100度から6ノットの風
18-21時:風が変化
21時-25日03時:040度から10ノットの風

静岡空港
TAF RJNS 231106Z 2312/2418 26012KT 9999 FEW030
TEMPO 2403/2409 27018G28KT
日本時間23日21時-25日03時:260度から12ノットの風
但し、24日12-18時の間:ときどき270度から18ノット、突風28ノット

福岡空港
TAF RJFF 231109Z 2312/2418 16004KT 9000 NSC
BECMG 2400/2403 33006KT
BECMG 2412/2415 16003KT
日本時間23日21時-24日09時:160度から4ノットの風
09-12時:風が変化
12-21時:330度から6ノットの風
21-24時:風が変化
25日00-03時:160度から3ノットの風

那覇空港
TAF AMD ROAH 231234Z 2312/2418 24008KT 8000 SCT010 BKN025
BECMG 2314/2316 03007KT
TEMPO 2317/2320 4000 SHRA
日本時間23日21-23時:240度から8ノットの風
23時-24日01時:風が変化
01時-25日03時:030度から7ノットの風

但し、23日02-05時の間:ときどき

石垣空港
TAF ROIG 231110Z 2312/2418 03008KT 9999 FEW015 SCT035
BECMG 2415/2418 10010KT
日本時間23日21-24時:030度から8ノットの風
24日00-03時:風が変化
03時-25日03時:100度から10ノットの風

マウイのカフルイ空港
PHOG 231135Z 2312/2412 VRB03KT P6SM FEW040
FM232100 04015G22KT P6SM FEW050
FM240500 05008KT P6SM SCT050 AMD LTD TO WX VIS AND WIND TIL 231600
ハワイ時間23日02-11時:風向不定3ノットの風
11-19時:040度から15ノット、突風22ノット
19時-24日02時:050度から8ノットの風

サイパン空港
TAF PGSN 231120Z 2312/2412 07015KT P6SM SCT025 BKN060
FM240100 07015G22KT P6SM VCSH SCT025 SCT050
マリアナ時間23日22時-24日11時:070度から15ノットの風
11-22時:070度から15ノット、突風22ノット

コメント
この記事をはてなブックマークに追加

2/22-2/24の航空気象通報

2015年02月22日 23時42分45秒 | TAF

羽田空港
TAF RJTT 221108Z 2212/2318 14006KT 9999 FEW015 BKN030
TEMPO 2212/2214 FEW006 BKN008
BECMG 2213/2215 20020KT
TEMPO 2214/2222 20025G35KT
BECMG 2306/2309 03008KT
日本時間22日21-22時:140度から6ノットの風
22-24時:風が変化
23日00-15時:200度から20ノットの風
但し、22日22時-23日07時の間:200度から25ノット、突風35ノット
12-15時:風が変化
15時-24日03時:030度から8ノットの風

静岡空港
TAF RJNS 221105Z 2212/2318 34004KT 6000 -SHRA FEW008 BKN015
BECMG 2212/2214 26012KT
TEMPO 2212/2218 3000 SHRA BR FEW005 BKN008
TEMPO 2218/2221 2000 SHRA BR FEW003 BKN005
TEMPO 2303/2309 27020G30KT
日本時間22日21時:340度から4ノットの風
21-23時:風が変化
23時-24日03時:260度から12ノットの風
但し、23日12-18時の間:ときどき270度から20ノット、突風30ノット

福岡空港
TAF RJFF 221105Z 2212/2318 16006KT 9999 FEW040
BECMG 2222/2224 32010KT
BECMG 2309/2312 16005KT
日本時間22日21時-23日07時:160度から6ノットの風
07-09時:風が変化
09-18時:320度から10ノットの風
18-21時:風が変化
21時-24日03時:160度から5ノットの風

那覇空港
TAF ROAH 221110Z 2212/2318 19009KT 9999 FEW015 BKN030
BECMG 2216/2218 02006KT
日本時間22日21時-23日01時:190度から9ノットの風
01-03時:風が変化
03時-24日03時:020度から6ノットの風

石垣空港
TAF ROIG 221116Z 2212/2318 09006KT 9999 FEW008 BKN015
BECMG 2216/2218 15008KT
TEMPO 2223/2303 4000 SHRA
日本時間22日21時-23日01時:090度から6ノットの風
01-03時:風が変化
03時-24日03時:150度から8ノットの風

但し、23日08-12時の間:ときどき

マウイのカフルイ空港
PHOG 221120Z 2212/2312 03008KT P6SM FEW050 BKN200
FM222000 06012KT P6SM FEW050
FM230400 05007KT P6SM SCT050 AMD LTD TO WX VIS AND WIND TIL 221600
ハワイ時間22日02-10時:030度から8ノットの風

10-18時:060度から12ノットの風
18時-23日02時:050度から7ノットの風

サイパン空港
TAF PGSN 221120Z 2212/2312 06017KT P6SM SCT020 BKN070
マリアナ時間22日22時-23日22時:060度から17ノットの風

コメント
この記事をはてなブックマークに追加

2/21-2/23の航空気象通報

2015年02月21日 22時37分00秒 | TAF

羽田空港
TAF RJTT 211105Z 2112/2218 12008KT 9999 FEW020 BKN040
BECMG 2118/2120 36006KT
BECMG 2203/2206 18020KT
TEMPO 2209/2218 20025G35KT
日本時間21日21時-22日03時:120度から8ノットの風
03-05時:風が変化
05-12時:360度から6ノットの風
12-15時:風が変化
15時-23日03時:180度から20ノットの風
但し、22日18時-23日03時の間:ときどき200度から25ノット、突風35ノット

静岡空港
TAF RJNS 211105Z 2112/2218 34004KT 9999 FEW010 BKN020
BECMG 2116/2118 4000 -SHRA BR FEW004 BKN008
TEMPO 2118/2124 2000 SHRA BR FEW002 BKN004
BECMG 2200/2203 18008KT 8000 -SHRA FEW008 BKN015
TEMPO 2203/2209 4000 -SHRA BR FEW005 BKN008
TEMPO 2209/2218 3000 SHRA BR FEW004 BKN008
日本時間21日21時-22日09時:340度から4ノットの風
09-12時:風が変化
12時-23日03時:180度から8ノットの風
、22日01-03時の後、

福岡空港
TAF RJFF 211115Z 2112/2218 15015KT 8000 -SHRA FEW010 SCT020 BKN030
TEMPO 2115/2124 4000 -SHRA BR
BECMG 2200/2203 27010KT
BECMG 2209/2212 16005KT
日本時間21日21時-22日09時:150度から15ノットの風
09-12時:風が変化
12-18時:270度から10ノットの風
18-21時:風が変化
21時-23日03時:160度から5ノットの風

那覇空港
TAF ROAH 211105Z 2112/2218 18009KT 9999 FEW025 SCT040
日本時間21日21時-23日03時:180度から9ノットの風

石垣空港
TAF ROIG 211106Z 2112/2218 19010KT 9999 FEW025
日本時間21日21時-23日03時:190度から10ノットの風

マウイのカフルイ空港
PHOG 211120Z 2112/2212 03005KT P6SM VCSH BKN025 OVC080
FM211400 03003KT P6SM VCSH SCT018 BKN035 OVC100
FM212000 03010KT P6SM VCSH FEW022 SCT045 BKN120 AMD LTD TO WX VIS AND WIND TIL 211600
ハワイ時間21日02-04時:030度から5ノットの風
04-10時:030度から3ノットの風

10時-22日02時:030度から10ノットの風

サイパン空港
TAF PGSN 211124Z 2112/2212 02011G21KT P6SM SCT030 BKN060
FM212300 03020G29KT P6SM FEW025 SCT050
マリアナ時間21日22時-22日09時:020度から11ノット、突風21ノット
09-22時:030度から20ノット、突風29ノット

コメント
この記事をはてなブックマークに追加